Time;durP1;ratioP1;P1;durP2;ratioP2;P2;SDS_P1;SDS_P2;PMS_P1;PMS_P2;Temp;Humidity;BMP_temperature;BMP_pressure;BME280_temperature;BME280_humidity;BME280_pressure;Samples;Min_cycle;Max_cycle;Signal;HPM_P1;HPM_P2
2022/04/14 00:01:19;;;;;;;334.63;177.43;;;;;;;;;;4994851;28;20401;-62
2022/04/14 00:03:45;;;;;;;345.93;181.77;;;;;;;;;;4994952;28;20411;-62
2022/04/14 00:06:11;;;;;;;340.97;179.00;;;;;;;;;;4994784;28;20437;-62
2022/04/14 00:08:37;;;;;;;337.93;175.03;;;;;;;;;;4994736;28;20564;-62
2022/04/14 00:11:03;;;;;;;340.77;177.50;;;;;;;;;;4994541;28;20417;-62
2022/04/14 00:13:29;;;;;;;331.13;174.10;;;;;;;;;;4994734;28;20406;-62
2022/04/14 00:15:55;;;;;;;316.03;170.60;;;;;;;;;;4994678;28;20947;-62
2022/04/14 00:18:21;;;;;;;322.83;169.80;;;;;;;;;;4994557;28;20409;-62
2022/04/14 00:20:47;;;;;;;323.67;171.83;;;;;;;;;;4994372;28;20447;-62
2022/04/14 00:23:13;;;;;;;321.30;169.07;;;;;;;;;;4994516;28;20484;-62
2022/04/14 00:25:39;;;;;;;329.97;176.90;;;;;;;;;;4994504;28;20817;-62
2022/04/14 00:28:05;;;;;;;330.17;171.87;;;;;;;;;;4994439;28;21011;-63
2022/04/14 00:30:31;;;;;;;327.88;172.90;;;;;;;;;;4994375;28;20427;-62
2022/04/14 00:32:57;;;;;;;302.07;169.23;;;;;;;;;;4994381;28;20699;-62
2022/04/14 00:35:23;;;;;;;295.00;164.27;;;;;;;;;;4994345;28;20993;-62
2022/04/14 00:37:48;;;;;;;283.13;163.03;;;;;;;;;;4994374;28;20406;-62
2022/04/14 00:40:14;;;;;;;273.73;162.73;;;;;;;;;;4994010;28;20492;-62
2022/04/14 00:42:41;;;;;;;279.00;160.33;;;;;;;;;;4994162;28;20409;-62
2022/04/14 00:45:09;;;;;;;278.63;164.80;;;;;;;;;;4994093;28;20810;-62
2022/04/14 00:47:38;;;;;;;315.40;170.38;;;;;;;;;;4993947;28;20198;-62
2022/04/14 00:50:05;;;;;;;331.17;158.02;;;;;;;;;;4993987;28;20174;-62
2022/04/14 00:52:31;;;;;;;324.88;166.60;;;;;;;;;;4993881;28;20631;-62
2022/04/14 00:54:57;;;;;;;325.42;166.25;;;;;;;;;;4993851;28;20205;-62
2022/04/14 00:57:23;;;;;;;319.63;157.87;;;;;;;;;;4994179;28;20210;-62
2022/04/14 00:59:49;;;;;;;316.43;162.60;;;;;;;;;;4994082;28;20414;-62
2022/04/14 01:02:15;;;;;;;315.37;164.00;;;;;;;;;;4993763;28;20424;-62
2022/04/14 01:04:41;;;;;;;321.87;157.20;;;;;;;;;;4993855;28;20461;-62
2022/04/14 01:07:08;;;;;;;322.92;163.50;;;;;;;;;;4993622;28;20432;-63
2022/04/14 01:09:34;;;;;;;299.70;159.07;;;;;;;;;;4993579;28;20206;-62
2022/04/14 01:12:01;;;;;;;298.90;160.77;;;;;;;;;;4993376;28;20211;-62
2022/04/14 01:14:28;;;;;;;284.25;157.32;;;;;;;;;;4993472;28;20205;-62
2022/04/14 01:16:57;;;;;;;285.70;161.57;;;;;;;;;;4993655;28;20611;-62
2022/04/14 01:19:23;;;;;;;290.35;160.70;;;;;;;;;;4993608;28;20210;-63
2022/04/14 01:22:11;;;;;;;280.60;153.73;;;;;;;;;;4993278;28;20176;-62
2022/04/14 01:24:37;;;;;;;293.27;156.38;;;;;;;;;;4980714;28;20426;-62
2022/04/14 01:27:03;;;;;;;263.83;156.05;;;;;;;;;;4993157;28;20249;-62
2022/04/14 01:29:30;;;;;;;283.25;162.45;;;;;;;;;;4993215;28;20563;-62
2022/04/14 01:31:56;;;;;;;312.83;159.27;;;;;;;;;;4993037;28;20236;-63
2022/04/14 01:34:22;;;;;;;320.30;169.43;;;;;;;;;;4993237;28;20251;-63
2022/04/14 01:36:48;;;;;;;294.27;163.30;;;;;;;;;;4993008;28;20786;-62
2022/04/14 01:39:14;;;;;;;314.00;165.77;;;;;;;;;;4993072;28;20799;-62
2022/04/14 01:41:40;;;;;;;320.75;167.50;;;;;;;;;;4992724;28;20178;-62
2022/04/14 01:44:07;;;;;;;318.65;168.88;;;;;;;;;;4993082;28;20182;-62
2022/04/14 01:46:33;;;;;;;307.35;166.52;;;;;;;;;;4992936;28;20201;-62
2022/04/14 01:48:59;;;;;;;314.90;165.75;;;;;;;;;;4992912;28;20198;-62
2022/04/14 01:51:27;;;;;;;318.95;166.00;;;;;;;;;;4992746;28;20596;-62
2022/04/14 01:53:53;;;;;;;302.20;153.32;;;;;;;;;;4992860;28;20250;-63
2022/04/14 01:56:19;;;;;;;318.20;165.13;;;;;;;;;;4991234;28;20266;-62
2022/04/14 01:58:45;;;;;;;302.05;154.02;;;;;;;;;;5030223;22;20499;-61
2022/04/14 02:01:11;;;;;;;318.30;162.93;;;;;;;;;;5011355;28;20185;-61
2022/04/14 02:03:37;;;;;;;350.90;154.10;;;;;;;;;;5011739;28;20607;-60
2022/04/14 02:06:03;;;;;;;356.33;161.77;;;;;;;;;;5011877;28;20467;-61
2022/04/14 02:08:29;;;;;;;366.33;158.30;;;;;;;;;;5012048;28;20460;-61
2022/04/14 02:10:55;;;;;;;400.63;163.20;;;;;;;;;;5011852;28;20173;-61
2022/04/14 02:13:21;;;;;;;404.67;167.57;;;;;;;;;;5012065;28;20184;-61
2022/04/14 02:15:47;;;;;;;402.98;173.25;;;;;;;;;;5011925;28;20746;-59
2022/04/14 02:18:13;;;;;;;387.30;169.20;;;;;;;;;;5011962;28;20211;-60
2022/04/14 02:20:39;;;;;;;422.67;174.53;;;;;;;;;;5011773;28;20447;-61
2022/04/14 02:23:05;;;;;;;442.43;166.73;;;;;;;;;;5012158;28;20495;-61
2022/04/14 02:25:31;;;;;;;437.92;172.90;;;;;;;;;;5011989;28;20416;-60
2022/04/14 02:27:57;;;;;;;395.20;171.83;;;;;;;;;;5011824;28;20596;-61
2022/04/14 02:30:23;;;;;;;380.70;173.63;;;;;;;;;;5011538;28;20772;-60
2022/04/14 02:32:49;;;;;;;392.52;170.93;;;;;;;;;;5011944;28;20832;-61
2022/04/14 02:35:15;;;;;;;327.43;161.90;;;;;;;;;;5012064;28;20213;-61
2022/04/14 02:37:41;;;;;;;323.23;160.27;;;;;;;;;;5011750;28;20467;-58
2022/04/14 02:40:07;;;;;;;330.87;160.30;;;;;;;;;;5011542;28;20185;-61
2022/04/14 02:42:33;;;;;;;326.15;164.40;;;;;;;;;;5011801;28;20409;-61
2022/04/14 02:44:59;;;;;;;296.30;157.40;;;;;;;;;;5011668;28;20174;-61
2022/04/14 02:47:25;;;;;;;339.87;159.70;;;;;;;;;;5011605;28;20424;-61
2022/04/14 02:49:52;;;;;;;349.30;162.48;;;;;;;;;;5011307;28;20974;-61
2022/04/14 02:52:17;;;;;;;349.70;160.05;;;;;;;;;;5011616;28;20424;-61
2022/04/14 02:54:43;;;;;;;359.70;165.00;;;;;;;;;;5011703;28;20173;-61
2022/04/14 02:57:10;;;;;;;345.47;162.43;;;;;;;;;;5011406;28;20491;-61
2022/04/14 02:59:39;;;;;;;343.40;152.40;;;;;;;;;;5011559;28;20416;-60
2022/04/14 03:02:05;;;;;;;343.40;155.77;;;;;;;;;;5011350;28;20181;-61
2022/04/14 03:04:31;;;;;;;341.20;157.60;;;;;;;;;;5011542;28;20181;-61
2022/04/14 03:06:58;;;;;;;344.23;153.40;;;;;;;;;;5011440;28;20642;-60
2022/04/14 03:09:24;;;;;;;332.27;154.15;;;;;;;;;;5011398;28;20932;-60
2022/04/14 03:11:50;;;;;;;336.40;157.35;;;;;;;;;;5011237;28;20228;-61
2022/04/14 03:14:16;;;;;;;330.60;148.35;;;;;;;;;;5011338;28;20216;-61
2022/04/14 03:16:42;;;;;;;329.57;147.00;;;;;;;;;;5012880;28;20642;-61
2022/04/14 03:19:08;;;;;;;334.50;158.40;;;;;;;;;;5015193;28;20859;-61
2022/04/14 03:21:34;;;;;;;340.57;153.53;;;;;;;;;;5015081;28;20265;-61
2022/04/14 03:24:00;;;;;;;338.10;151.83;;;;;;;;;;5015176;28;20444;-61
2022/04/14 03:26:26;;;;;;;342.77;155.83;;;;;;;;;;5015201;28;20494;-61
2022/04/14 03:28:52;;;;;;;328.13;153.53;;;;;;;;;;5014928;28;20460;-61
2022/04/14 03:31:18;;;;;;;337.40;152.10;;;;;;;;;;5014828;28;20420;-61
2022/04/14 03:33:44;;;;;;;284.83;152.70;;;;;;;;;;5015102;28;20500;-59
2022/04/14 03:36:10;;;;;;;258.27;146.43;;;;;;;;;;5015188;28;20409;-61
2022/04/14 03:38:36;;;;;;;243.87;143.33;;;;;;;;;;5014903;28;20936;-61
2022/04/14 03:41:06;;;;;;;299.48;156.43;;;;;;;;;;5014704;28;20482;-61
2022/04/14 03:43:32;;;;;;;366.17;162.10;;;;;;;;;;5014785;28;20697;-61
2022/04/14 03:45:58;;;;;;;390.48;162.70;;;;;;;;;;5014611;28;20331;-61
2022/04/14 03:48:24;;;;;;;381.10;170.45;;;;;;;;;;5014770;28;20292;-61
2022/04/14 03:50:50;;;;;;;381.42;167.35;;;;;;;;;;5014546;28;20177;-61
2022/04/14 03:53:18;;;;;;;374.13;159.33;;;;;;;;;;5014694;28;20622;-61
2022/04/14 03:55:46;;;;;;;263.38;150.02;;;;;;;;;;5014646;28;20776;-60
2022/04/14 03:58:12;;;;;;;383.85;165.90;;;;;;;;;;5014517;28;20267;-61
2022/04/14 04:00:38;;;;;;;385.93;162.83;;;;;;;;;;5014355;28;20259;-60
2022/04/14 04:03:04;;;;;;;389.83;158.23;;;;;;;;;;5014625;28;20416;-61
2022/04/14 04:05:29;;;;;;;387.63;163.57;;;;;;;;;;5014438;28;20419;-58
2022/04/14 04:07:55;;;;;;;377.13;160.10;;;;;;;;;;5014048;28;20436;-59
2022/04/14 04:10:21;;;;;;;393.07;167.37;;;;;;;;;;5014197;28;20444;-60
2022/04/14 04:12:47;;;;;;;381.53;156.87;;;;;;;;;;5014249;28;20423;-60
2022/04/14 04:15:13;;;;;;;364.67;151.63;;;;;;;;;;5014277;28;20405;-61
2022/04/14 04:17:40;;;;;;;300.67;139.60;;;;;;;;;;5014179;28;20455;-61
2022/04/14 04:20:06;;;;;;;289.95;144.65;;;;;;;;;;5013937;28;20415;-61
2022/04/14 04:22:35;;;;;;;283.83;140.93;;;;;;;;;;5014035;28;20597;-61
2022/04/14 04:25:03;;;;;;;280.75;134.52;;;;;;;;;;5014040;28;20184;-61
2022/04/14 04:27:29;;;;;;;278.30;135.60;;;;;;;;;;5013541;28;20197;-61
2022/04/14 04:29:55;;;;;;;279.00;137.17;;;;;;;;;;5013930;28;20632;-61
2022/04/14 04:32:21;;;;;;;286.30;139.57;;;;;;;;;;5013817;28;20454;-61
2022/04/14 04:34:47;;;;;;;277.47;137.63;;;;;;;;;;5013800;28;20915;-61
2022/04/14 04:37:13;;;;;;;284.50;140.15;;;;;;;;;;5013750;28;20885;-61
2022/04/14 04:39:39;;;;;;;279.67;134.93;;;;;;;;;;5013727;28;20174;-61
2022/04/14 04:42:05;;;;;;;267.35;128.63;;;;;;;;;;5013564;28;20409;-61
2022/04/14 04:44:31;;;;;;;283.02;137.30;;;;;;;;;;5013715;28;20173;-61
2022/04/14 04:46:57;;;;;;;282.00;137.47;;;;;;;;;;5013693;28;20184;-60
2022/04/14 04:49:23;;;;;;;280.77;131.83;;;;;;;;;;5013401;28;20542;-61
2022/04/14 04:51:49;;;;;;;285.83;135.53;;;;;;;;;;5013555;28;20415;-61
2022/04/14 04:54:14;;;;;;;272.97;136.03;;;;;;;;;;5013526;28;20907;-61
2022/04/14 04:56:40;;;;;;;275.43;137.90;;;;;;;;;;5013453;28;20413;-61
2022/04/14 04:59:08;;;;;;;274.67;137.23;;;;;;;;;;5013260;28;20898;-61
2022/04/14 05:01:34;;;;;;;275.23;137.85;;;;;;;;;;5013177;28;20419;-61
2022/04/14 05:03:59;;;;;;;277.97;137.37;;;;;;;;;;5013260;28;20576;-61
2022/04/14 05:06:25;;;;;;;285.57;137.37;;;;;;;;;;5013303;28;20888;-60
2022/04/14 05:08:51;;;;;;;280.57;136.73;;;;;;;;;;5013068;28;20994;-61
2022/04/14 05:11:17;;;;;;;251.07;131.93;;;;;;;;;;5012989;28;20401;-61
2022/04/14 05:13:43;;;;;;;278.67;135.93;;;;;;;;;;5013163;28;20404;-61
2022/04/14 05:16:10;;;;;;;278.00;137.33;;;;;;;;;;5013216;28;20754;-61
2022/04/14 05:18:36;;;;;;;275.05;138.68;;;;;;;;;;5013075;28;20515;-61
2022/04/14 05:21:02;;;;;;;277.42;138.90;;;;;;;;;;5012938;28;20225;-61
2022/04/14 05:23:28;;;;;;;275.35;136.32;;;;;;;;;;5012936;28;20188;-61
2022/04/14 05:25:57;;;;;;;279.87;136.93;;;;;;;;;;5012900;28;20174;-62
2022/04/14 05:28:23;;;;;;;279.10;138.52;;;;;;;;;;5013035;28;21029;-61
2022/04/14 05:30:49;;;;;;;287.27;139.73;;;;;;;;;;5012554;28;20170;-61
2022/04/14 05:33:15;;;;;;;289.37;141.57;;;;;;;;;;5008060;28;20436;-61
2022/04/14 05:35:43;;;;;;;280.27;136.17;;;;;;;;;;4992993;28;20785;-61
2022/04/14 05:38:09;;;;;;;281.80;140.32;;;;;;;;;;4992861;28;20433;-59
2022/04/14 05:40:40;;;;;;;289.25;144.35;;;;;;;;;;4991301;28;20174;-61
2022/04/14 05:43:06;;;;;;;294.23;147.80;;;;;;;;;;4992933;28;20561;-61
2022/04/14 05:45:32;;;;;;;286.63;138.03;;;;;;;;;;4993697;28;20170;-61
2022/04/14 05:47:58;;;;;;;285.43;149.13;;;;;;;;;;5012059;28;20428;-61
2022/04/14 05:50:24;;;;;;;291.80;152.63;;;;;;;;;;5012003;28;21063;-61
2022/04/14 05:52:50;;;;;;;319.63;154.87;;;;;;;;;;5011148;28;20427;-61
2022/04/14 05:55:16;;;;;;;316.17;154.43;;;;;;;;;;5012032;28;20454;-61
2022/04/14 05:57:42;;;;;;;311.57;158.60;;;;;;;;;;5012075;28;20445;-61
2022/04/14 06:00:09;;;;;;;316.57;157.50;;;;;;;;;;5012047;28;20892;-61
2022/04/14 06:02:35;;;;;;;306.77;153.45;;;;;;;;;;5012238;28;20413;-61
2022/04/14 06:05:01;;;;;;;307.03;157.10;;;;;;;;;;5012314;28;20174;-61
2022/04/14 06:07:27;;;;;;;316.40;153.50;;;;;;;;;;5010056;28;20448;-61
2022/04/14 06:09:52;;;;;;;316.20;157.83;;;;;;;;;;5011242;28;20990;-61
2022/04/14 06:12:18;;;;;;;314.27;152.83;;;;;;;;;;5011876;28;20409;-61
2022/04/14 06:14:44;;;;;;;316.87;157.97;;;;;;;;;;5012286;28;20408;-59
2022/04/14 06:17:10;;;;;;;316.37;161.43;;;;;;;;;;5011951;28;20413;-61
2022/04/14 06:19:38;;;;;;;317.63;160.43;;;;;;;;;;5012124;28;20444;-61
2022/04/14 06:22:04;;;;;;;329.23;165.35;;;;;;;;;;5010724;28;20433;-60
2022/04/14 06:24:30;;;;;;;328.05;165.13;;;;;;;;;;5011847;28;20212;-61
2022/04/14 06:26:56;;;;;;;310.73;159.20;;;;;;;;;;5010922;28;20178;-61
2022/04/14 06:29:22;;;;;;;315.97;163.60;;;;;;;;;;5010446;28;20856;-61
2022/04/14 06:31:48;;;;;;;318.97;163.10;;;;;;;;;;5011464;28;20914;-61
2022/04/14 06:34:14;;;;;;;327.13;169.32;;;;;;;;;;5010006;28;20436;-61
2022/04/14 06:36:40;;;;;;;340.90;165.90;;;;;;;;;;5011626;28;20177;-61
2022/04/14 06:39:12;;;;;;;363.00;172.93;;;;;;;;;;5010205;28;20420;-61
2022/04/14 06:41:38;;;;;;;399.45;183.90;;;;;;;;;;5010444;28;20488;-60
2022/04/14 06:44:04;;;;;;;369.35;184.07;;;;;;;;;;5010314;28;20185;-61
2022/04/14 06:46:30;;;;;;;425.48;192.52;;;;;;;;;;5010522;28;20179;-61
2022/04/14 06:48:56;;;;;;;419.43;197.83;;;;;;;;;;5010195;28;20213;-61
2022/04/14 06:51:22;;;;;;;424.75;204.80;;;;;;;;;;5014857;28;20466;-61
2022/04/14 06:53:48;;;;;;;418.10;193.70;;;;;;;;;;5018054;28;20175;-59
2022/04/14 06:56:15;;;;;;;424.03;201.97;;;;;;;;;;5018305;28;20499;-60
2022/04/14 06:58:42;;;;;;;426.92;203.30;;;;;;;;;;5018005;28;20456;-61
2022/04/14 07:01:08;;;;;;;406.38;205.35;;;;;;;;;;5018374;28;20583;-61
2022/04/14 07:03:34;;;;;;;408.73;211.77;;;;;;;;;;5018194;28;20625;-61
2022/04/14 07:06:00;;;;;;;406.98;214.25;;;;;;;;;;5018452;28;20229;-61
2022/04/14 07:08:32;;;;;;;395.87;201.47;;;;;;;;;;5016690;28;20668;-62
2022/04/14 07:10:59;;;;;;;411.92;212.32;;;;;;;;;;5017822;28;20408;-60
2022/04/14 07:13:25;;;;;;;438.83;227.27;;;;;;;;;;5018361;28;20180;-60
2022/04/14 07:15:51;;;;;;;447.90;228.88;;;;;;;;;;5018337;28;20169;-61
2022/04/14 07:18:17;;;;;;;450.88;239.43;;;;;;;;;;5017365;28;20595;-60
2022/04/14 07:20:46;;;;;;;453.92;239.80;;;;;;;;;;5017746;28;20628;-61
2022/04/14 07:23:12;;;;;;;449.85;233.80;;;;;;;;;;5018169;28;20185;-60
2022/04/14 07:25:38;;;;;;;451.43;238.37;;;;;;;;;;5016143;28;20188;-60
2022/04/14 07:28:04;;;;;;;456.38;254.13;;;;;;;;;;5017780;28;20439;-59
2022/04/14 07:30:31;;;;;;;452.30;248.52;;;;;;;;;;5017409;28;20173;-60
2022/04/14 07:32:57;;;;;;;451.95;253.50;;;;;;;;;;5016136;28;20189;-60
2022/04/14 07:35:25;;;;;;;448.73;254.35;;;;;;;;;;5016886;28;20211;-60
2022/04/14 07:37:51;;;;;;;456.85;259.58;;;;;;;;;;5017024;28;20193;-60
2022/04/14 07:40:18;;;;;;;430.77;262.92;;;;;;;;;;5016856;28;20561;-59
2022/04/14 07:42:45;;;;;;;464.42;268.55;;;;;;;;;;5004234;28;20261;-61
2022/04/14 07:45:11;;;;;;;468.08;279.90;;;;;;;;;;4996194;28;20182;-59
2022/04/14 07:47:41;;;;;;;464.73;275.98;;;;;;;;;;4997532;28;20202;-61
2022/04/14 07:50:07;;;;;;;464.10;275.58;;;;;;;;;;4997442;28;20206;-61
2022/04/14 07:52:43;;;;;;;473.42;297.92;;;;;;;;;;4997607;28;20202;-61
2022/04/14 07:55:09;;;;;;;444.38;303.05;;;;;;;;;;4997794;28;20629;-58
2022/04/14 07:57:35;;;;;;;476.33;339.33;;;;;;;;;;4997079;28;20258;-61
2022/04/14 08:00:01;;;;;;;492.67;365.07;;;;;;;;;;4997626;28;20905;-60
2022/04/14 08:02:26;;;;;;;492.23;374.03;;;;;;;;;;4994895;28;20410;-54
2022/04/14 08:04:52;;;;;;;500.47;404.03;;;;;;;;;;4994411;28;20556;-61
2022/04/14 08:07:18;;;;;;;509.33;443.40;;;;;;;;;;4994355;28;20523;-60
2022/04/14 08:09:44;;;;;;;505.17;432.60;;;;;;;;;;4994639;28;20453;-61
2022/04/14 08:12:12;;;;;;;506.83;447.43;;;;;;;;;;4994371;28;20497;-61
2022/04/14 08:14:38;;;;;;;550.80;493.33;;;;;;;;;;4994009;28;20406;-61
2022/04/14 08:17:04;;;;;;;563.67;505.97;;;;;;;;;;4994210;28;20424;-61
2022/04/14 08:19:31;;;;;;;599.30;541.00;;;;;;;;;;4993543;28;20449;-61
2022/04/14 08:21:57;;;;;;;665.13;605.47;;;;;;;;;;4994052;28;20488;-61
2022/04/14 08:24:23;;;;;;;679.97;619.87;;;;;;;;;;4994276;28;20410;-61
2022/04/14 08:26:49;;;;;;;706.90;646.37;;;;;;;;;;4994370;28;20425;-59
2022/04/14 08:29:15;;;;;;;741.87;680.37;;;;;;;;;;4994125;28;20467;-59
2022/04/14 08:31:41;;;;;;;792.30;730.00;;;;;;;;;;4994073;28;20910;-60
2022/04/14 08:34:07;;;;;;;812.20;749.47;;;;;;;;;;4994140;28;20468;-61
2022/04/14 08:36:33;;;;;;;840.43;777.03;;;;;;;;;;4993989;28;20410;-61
2022/04/14 08:38:59;;;;;;;860.77;797.07;;;;;;;;;;4994181;28;20794;-61
2022/04/14 08:41:28;;;;;;;892.60;827.90;;;;;;;;;;4992750;28;20409;-61
2022/04/14 08:46:26;;;;;;;904.23;839.37;;;;;;;;;;5048647;28;20556;-62
2022/04/14 08:48:55;;;;;;;924.97;859.47;;;;;;;;;;5053058;28;20462;-63
2022/04/14 08:51:21;;;;;;;958.27;891.70;;;;;;;;;;5052878;28;20419;-63
2022/04/14 08:53:48;;;;;;;969.93;902.93;;;;;;;;;;5068815;28;20405;-63
2022/04/14 08:56:14;;;;;;;965.40;898.60;;;;;;;;;;5052891;28;20413;-63
2022/04/14 08:58:42;;;;;;;998.80;931.10;;;;;;;;;;5052899;28;20415;-64
2022/04/14 09:01:08;;;;;;;996.40;928.90;;;;;;;;;;5052703;28;20418;-64
2022/04/14 09:03:34;;;;;;;1010.13;942.13;;;;;;;;;;5052931;28;20490;-64
2022/04/14 09:06:01;;;;;;;998.60;930.90;;;;;;;;;;5052795;28;20435;-65
2022/04/14 09:08:27;;;;;;;1021.00;952.50;;;;;;;;;;5052703;28;20468;-64
2022/04/14 09:10:53;;;;;;;1022.70;954.30;;;;;;;;;;5052656;28;20895;-64
2022/04/14 09:13:20;;;;;;;1038.50;969.77;;;;;;;;;;5051772;28;20955;-64
2022/04/14 09:15:47;;;;;;;1034.17;965.37;;;;;;;;;;5051220;28;20506;-64
2022/04/14 09:18:13;;;;;;;1041.43;972.30;;;;;;;;;;5052604;28;20470;-63
2022/04/14 09:20:41;;;;;;;1049.50;980.30;;;;;;;;;;5052296;28;20420;-64
2022/04/14 09:23:18;;;;;;;1044.77;975.67;;;;;;;;;;5052561;28;20425;-63
2022/04/14 09:25:44;;;;;;;1035.67;967.07;;;;;;;;;;5052210;28;20516;-64
2022/04/14 09:28:12;;;;;;;1051.53;982.33;;;;;;;;;;5052449;28;20501;-63
2022/04/14 09:30:38;;;;;;;1054.63;985.23;;;;;;;;;;5051047;28;20774;-63
2022/04/14 09:33:04;;;;;;;1052.40;983.20;;;;;;;;;;5052336;28;20425;-63
2022/04/14 09:35:31;;;;;;;1036.07;967.40;;;;;;;;;;5052237;28;20433;-63
2022/04/14 09:38:02;;;;;;;1038.53;969.73;;;;;;;;;;5052256;28;20413;-62
2022/04/14 09:40:33;;;;;;;1014.40;946.50;;;;;;;;;;5051614;28;20427;-63
2022/04/14 09:42:59;;;;;;;1023.37;955.50;;;;;;;;;;5052149;28;20912;-63
2022/04/14 09:45:26;;;;;;;1010.57;943.17;;;;;;;;;;5051897;28;20460;-63
2022/04/14 09:47:55;;;;;;;1017.77;950.07;;;;;;;;;;5035890;28;20911;-63
2022/04/14 09:50:24;;;;;;;1006.43;938.93;;;;;;;;;;5022769;28;20425;-62
2022/04/14 09:53:05;;;;;;;1004.57;937.10;;;;;;;;;;5022486;28;20950;-62
2022/04/14 09:55:31;;;;;;;1006.17;938.80;;;;;;;;;;5020687;28;20434;-63
2022/04/14 09:58:16;;;;;;;1009.23;942.13;;;;;;;;;;5020406;28;20421;-63
2022/04/14 10:00:42;;;;;;;1005.90;938.63;;;;;;;;;;5021635;28;20410;-62
2022/04/14 10:03:09;;;;;;;985.97;919.37;;;;;;;;;;5022738;28;20417;-63
2022/04/14 10:05:35;;;;;;;986.10;919.37;;;;;;;;;;5021484;28;20442;-62
2022/04/14 10:08:01;;;;;;;982.77;916.17;;;;;;;;;;5019927;28;20493;-62
2022/04/14 10:10:27;;;;;;;981.10;914.60;;;;;;;;;;5020833;28;20583;-62
2022/04/14 10:13:06;;;;;;;994.67;927.97;;;;;;;;;;5016651;28;20414;-63
2022/04/14 10:15:37;;;;;;;1000.10;933.07;;;;;;;;;;5011623;28;20434;-63
2022/04/14 10:18:04;;;;;;;984.67;918.37;;;;;;;;;;5019404;28;20430;-63
2022/04/14 10:20:31;;;;;;;990.93;924.33;;;;;;;;;;5029248;28;20436;-63
2022/04/14 10:22:59;;;;;;;1008.47;941.20;;;;;;;;;;5031279;28;20422;-63
2022/04/14 10:25:26;;;;;;;1006.97;939.77;;;;;;;;;;5030853;28;21147;-63
2022/04/14 10:27:56;;;;;;;1017.13;949.23;;;;;;;;;;5031432;28;20411;-63
2022/04/14 10:30:23;;;;;;;1038.13;969.57;;;;;;;;;;5029446;28;20978;-64
2022/04/14 10:32:49;;;;;;;1034.83;966.73;;;;;;;;;;5027169;28;20397;-63
2022/04/14 10:35:15;;;;;;;1013.43;945.90;;;;;;;;;;5031143;28;20438;-64
2022/04/14 10:37:50;;;;;;;1024.90;957.33;;;;;;;;;;5030630;28;20433;-63
2022/04/14 10:40:16;;;;;;;1018.87;951.27;;;;;;;;;;5025276;28;20827;-65
2022/04/14 10:42:50;;;;;;;1023.63;955.93;;;;;;;;;;5029477;28;20464;-63
2022/04/14 10:45:17;;;;;;;1002.20;935.00;;;;;;;;;;5022059;28;20459;-63
2022/04/14 10:47:43;;;;;;;999.73;932.57;;;;;;;;;;5028580;28;20423;-63
2022/04/14 10:50:20;;;;;;;998.27;931.07;;;;;;;;;;5028140;28;20473;-63
2022/04/14 10:53:09;;;;;;;985.70;919.20;;;;;;;;;;5030229;28;20428;-63
2022/04/14 10:55:36;;;;;;;993.70;926.93;;;;;;;;;;5030394;28;20438;-63
2022/04/14 10:58:02;;;;;;;981.37;914.77;;;;;;;;;;5028725;28;20416;-63
2022/04/14 11:00:31;;;;;;;995.97;929.00;;;;;;;;;;5028417;28;20479;-63
2022/04/14 11:03:03;;;;;;;979.47;913.07;;;;;;;;;;5030372;28;20416;-63
2022/04/14 11:05:41;;;;;;;993.43;926.43;;;;;;;;;;5030740;28;20430;-63
2022/04/14 11:08:23;;;;;;;986.50;919.67;;;;;;;;;;5029824;28;20419;-63
2022/04/14 11:11:08;;;;;;;974.80;908.50;;;;;;;;;;5027106;28;20404;-63
2022/04/14 11:13:53;;;;;;;967.97;901.77;;;;;;;;;;5030119;28;20424;-63
2022/04/14 11:16:37;;;;;;;970.17;903.80;;;;;;;;;;5028726;28;20410;-63
2022/04/14 11:19:12;;;;;;;979.77;913.37;;;;;;;;;;5030885;28;20464;-63
2022/04/14 11:21:58;;;;;;;974.90;908.63;;;;;;;;;;5026891;28;20917;-63
2022/04/14 11:24:37;;;;;;;946.07;887.40;;;;;;;;;;5026241;28;20514;-63
2022/04/14 11:27:11;;;;;;;948.00;882.50;;;;;;;;;;5020773;28;20430;-63
2022/04/14 11:29:37;;;;;;;947.47;881.90;;;;;;;;;;5020787;28;20467;-63
2022/04/14 11:32:03;;;;;;;942.73;877.20;;;;;;;;;;5018531;28;20906;-63
2022/04/14 11:34:32;;;;;;;927.43;862.17;;;;;;;;;;5019774;28;20933;-63
2022/04/14 11:37:01;;;;;;;915.27;850.27;;;;;;;;;;5020751;28;20443;-63
2022/04/14 11:39:27;;;;;;;897.67;833.17;;;;;;;;;;5023199;28;20411;-62
2022/04/14 11:41:53;;;;;;;906.17;841.37;;;;;;;;;;5027503;28;20785;-63
2022/04/14 11:44:20;;;;;;;889.30;825.27;;;;;;;;;;5031886;28;21315;-63
2022/04/14 11:46:50;;;;;;;906.00;841.57;;;;;;;;;;5026780;28;20447;-63
2022/04/14 11:49:21;;;;;;;891.47;827.40;;;;;;;;;;5033897;28;20463;-63
2022/04/14 11:51:47;;;;;;;899.67;835.67;;;;;;;;;;5034114;28;20792;-63
2022/04/14 11:54:14;;;;;;;916.43;851.70;;;;;;;;;;5034357;28;20481;-63
2022/04/14 11:56:40;;;;;;;907.33;842.87;;;;;;;;;;5033286;28;20421;-63
2022/04/14 11:59:08;;;;;;;899.93;835.67;;;;;;;;;;5033520;28;20993;-63
2022/04/14 12:01:35;;;;;;;908.93;844.47;;;;;;;;;;5033550;28;20425;-63
2022/04/14 12:04:01;;;;;;;897.37;832.87;;;;;;;;;;5034135;28;20418;-63
2022/04/14 12:06:26;;;;;;;871.07;807.30;;;;;;;;;;5034283;28;20451;-63
2022/04/14 12:08:53;;;;;;;863.73;800.07;;;;;;;;;;5034241;28;20541;-63
2022/04/14 12:11:20;;;;;;;818.27;755.87;;;;;;;;;;5033651;28;20439;-62
2022/04/14 12:13:46;;;;;;;819.97;757.53;;;;;;;;;;5034087;28;20852;-62
2022/04/14 12:16:13;;;;;;;786.77;724.77;;;;;;;;;;5033549;28;20510;-62
2022/04/14 12:18:40;;;;;;;782.50;720.90;;;;;;;;;;5033722;28;20461;-63
2022/04/14 12:21:07;;;;;;;750.37;689.80;;;;;;;;;;5032213;28;20464;-64
2022/04/14 12:23:33;;;;;;;739.23;678.87;;;;;;;;;;5033008;28;20901;-62
2022/04/14 12:26:02;;;;;;;752.60;691.63;;;;;;;;;;5033808;28;20919;-63
2022/04/14 12:28:28;;;;;;;741.90;681.30;;;;;;;;;;5015930;28;20470;-63
2022/04/14 12:30:54;;;;;;;739.67;679.20;;;;;;;;;;5032775;28;20411;-63
2022/04/14 12:33:30;;;;;;;738.60;678.00;;;;;;;;;;5033594;28;20787;-63
2022/04/14 12:36:08;;;;;;;719.23;659.13;;;;;;;;;;5033894;28;20985;-63
2022/04/14 12:38:54;;;;;;;731.90;671.70;;;;;;;;;;5033686;28;20430;-63
2022/04/14 12:41:22;;;;;;;732.90;672.63;;;;;;;;;;5033333;28;20504;-63
2022/04/14 12:43:50;;;;;;;718.90;658.97;;;;;;;;;;5033637;28;20774;-63
2022/04/14 12:46:20;;;;;;;712.73;653.03;;;;;;;;;;5033427;28;20443;-63
2022/04/14 12:48:46;;;;;;;708.50;648.97;;;;;;;;;;5033071;28;20798;-63
2022/04/14 12:51:12;;;;;;;711.17;652.57;;;;;;;;;;5033229;28;20417;-63
2022/04/14 12:53:38;;;;;;;694.83;635.33;;;;;;;;;;5033409;28;20410;-63
2022/04/14 12:56:14;;;;;;;706.70;646.90;;;;;;;;;;5033145;28;20422;-63
2022/04/14 12:58:41;;;;;;;710.90;651.10;;;;;;;;;;5033534;28;20550;-63
2022/04/14 13:01:08;;;;;;;690.53;631.03;;;;;;;;;;5032972;28;20543;-63
2022/04/14 13:03:52;;;;;;;700.47;640.80;;;;;;;;;;5033255;28;20409;-63
2022/04/14 13:06:19;;;;;;;674.67;615.47;;;;;;;;;;5033725;28;20405;-63
2022/04/14 13:08:45;;;;;;;705.80;646.03;;;;;;;;;;5015497;28;20464;-63
2022/04/14 13:11:30;;;;;;;689.40;629.90;;;;;;;;;;5032762;28;20897;-63
2022/04/14 13:13:56;;;;;;;677.97;620.20;;;;;;;;;;5032949;28;20419;-63
2022/04/14 13:16:22;;;;;;;667.23;609.43;;;;;;;;;;5033176;28;20938;-63
2022/04/14 13:18:48;;;;;;;675.73;616.53;;;;;;;;;;5033023;28;20428;-63
2022/04/14 13:21:14;;;;;;;689.17;629.60;;;;;;;;;;5032597;28;20768;-63
2022/04/14 13:23:40;;;;;;;678.63;619.57;;;;;;;;;;5032943;28;20409;-61
2022/04/14 13:26:06;;;;;;;673.60;614.60;;;;;;;;;;5032836;28;20426;-63
2022/04/14 13:28:32;;;;;;;680.03;620.80;;;;;;;;;;5032783;28;20456;-63
2022/04/14 13:30:58;;;;;;;673.37;614.33;;;;;;;;;;5032511;28;20415;-63
2022/04/14 13:33:24;;;;;;;641.13;582.83;;;;;;;;;;5032671;28;20442;-63
2022/04/14 13:35:50;;;;;;;649.53;590.93;;;;;;;;;;5032560;28;20515;-63
2022/04/14 13:38:17;;;;;;;665.83;607.30;;;;;;;;;;5032524;28;20411;-63
2022/04/14 13:40:43;;;;;;;668.77;609.87;;;;;;;;;;5032279;28;20411;-63
2022/04/14 13:43:09;;;;;;;658.30;599.90;;;;;;;;;;5032450;28;20459;-63
2022/04/14 13:45:35;;;;;;;665.80;608.03;;;;;;;;;;5032271;28;20449;-62
2022/04/14 13:48:01;;;;;;;645.47;588.37;;;;;;;;;;5032279;28;20414;-63
2022/04/14 13:50:27;;;;;;;625.73;571.83;;;;;;;;;;5032025;28;20425;-63
2022/04/14 13:52:54;;;;;;;628.50;576.60;;;;;;;;;;5032317;28;20416;-62
2022/04/14 13:55:22;;;;;;;602.10;548.40;;;;;;;;;;5032324;28;20462;-62